Airfield :
LOGIN :

Register | Disclaimer

   EN    FR    IT 

 










Legend :    VFR   Marginal VFR   IFR   Intensive IFR   Very Intensive IFR
Visi :
Ceiling :
>= 8 km
>= 3000ft
5 to 8 km
1000 to 3000 ft
1500m to 5 km
500 to 1000 ft
800 to 1500m
200 to 500 ft
< 800m
< 200 ft
Symbols :   Thunderstorms  Fog  Heavy snow  Heavy precipitations  Wind > 20 kt
SIGMETs :     Misc.  Thunderstorms  Icing  Turbulence  Mountain Waves  Volcanic Ashes







- Airport Elevation : 479 ft
- IATA code : DOL
- Download approach charts


LFRG - Deauville

CURRENT METAR :
  • 161830Z AUTO 11006KT 080V150 1000 R30/1300D BR VV/// 08/08 Q1024 NOSIG

EXPIRED METARs :
  • 161800Z AUTO 11007KT 080V160 4700 BR OVC002 08/08 Q1024 TEMPO 0800 FG VV///
  • 161730Z AUTO 11005KT 060V150 2800 BR VV/// 09/09 Q1024 TEMPO 0800 FG
  • 161700Z AUTO 10007KT 070V130 2100 BR VV/// 09/09 Q1023 BECMG OVC003
  • 161630Z AUTO 11007KT 070V150 5000 BR OVC003 09/08 Q1023 BECMG 2000 BR
  • 161600Z AUTO 11007KT 060V140 3600 BR OVC002 09/09 Q1023 BECMG 2000 BR

TAF AMD TAF LFRG
Valid from the 16 at 16:00 until the 17 at 00:00 UTC


161652Z 1616/1624 11008KT 2000 BR OVC003
TEMPO 1616/1624 0800 FG VV///
ATIS : +33 2 31 65 65 36
No reported NOTAMs for that airfield.



MET'MAP, your aeronautical weather chart ! - Copyright ORBIFLY December 2007 - Disclaimer

ORBIFLY MET'MAP TEAM :

Programming & Development : Alexandra Zaïnal
Concept & Development : Baudouin d'Aumeries
Co-Development & Prog : Marc-Olivier Méhu
Technical & hardware support : Manuel Goepfert

Contact : metmap@orbifly.com




SOURCES & CREDITS :

   NOAA